CheckWX is a tool to help pilots better visualize weather data.  It is not intended as a substitute for an official pre-flight weather briefing.

12:26:24 UTC

KPDK TAF
Dekalb-Peachtree Airport
Atlanta, Georgia, USA
KPDK 221120Z 2212/2312 32009KT P6SM SKC FM221500 29011G21KT P6SM SKC FM230000 29010KT P6SM SKC FM230400 30006KT P6SM SKC

Mar-22@
12:00 UTC

Mar-22 @ 12:00 UTC

Mar-22@
15:00 UTC

Mar-22 @ 15:00 UTC

KPDK 221120Z 2212/2312 32009KT P6SM SKC
Wind
  • 320° at 9 KTS
Cloud Levels
  • Clear skies

Mar-22@
15:00 UTC

Mar-22 @ 15:00 UTC

Mar-23@
00:00 UTC

Mar-23 @ 00:00 UTC

FM221500 29011G21KT P6SM SKC

From

From Standard forecast or significant change

Wind
  • 290° at 11 KTS
  • {Gusting to 21 KTS
Cloud Levels
  • Clear skies

Mar-23@
00:00 UTC

Mar-23 @ 00:00 UTC

Mar-23@
04:00 UTC

Mar-23 @ 04:00 UTC

FM230000 29010KT P6SM SKC

From

From Standard forecast or significant change

Wind
  • 290° at 10 KTS
Cloud Levels
  • Clear skies

Mar-23@
04:00 UTC

Mar-23 @ 04:00 UTC

Mar-23@
12:00 UTC

Mar-23 @ 12:00 UTC

FM230400 30006KT P6SM SKC

From

From Standard forecast or significant change

Wind
  • 300° at 6 KTS
Cloud Levels
  • Clear skies